createdAt,value
2018-06-07T00:00:57.667Z,32.90
2018-06-07T00:03:26.059Z,32.73
2018-06-07T00:05:55.005Z,29.77
2018-06-07T00:08:23.571Z,30.07
2018-06-07T00:10:51.659Z,27.63
2018-06-07T00:13:19.958Z,26.57
2018-06-07T00:15:47.892Z,24.30
2018-06-07T00:18:16.084Z,35.97
2018-06-07T00:20:44.299Z,23.33
2018-06-07T00:23:12.250Z,26.70
2018-06-07T00:25:46.937Z,28.07
2018-06-07T00:28:14.860Z,34.10
2018-06-07T00:30:42.789Z,40.00
2018-06-07T00:33:11.654Z,31.00
2018-06-07T00:35:45.010Z,27.53
2018-06-07T00:38:13.186Z,24.53
2018-06-07T00:40:41.134Z,20.93
2018-06-07T00:43:09.120Z,32.33
2018-06-07T00:45:37.058Z,26.53
2018-06-07T00:48:05.544Z,28.80
2018-06-07T00:50:33.786Z,26.63
2018-06-07T00:53:01.993Z,27.40
2018-06-07T00:55:30.257Z,32.20
2018-06-07T00:57:58.675Z,37.00
2018-06-07T01:00:27.065Z,31.97
2018-06-07T01:02:55.856Z,35.47
2018-06-07T01:05:24.489Z,35.47
2018-06-07T01:07:52.730Z,35.33
2018-06-07T01:10:21.051Z,29.10
2018-06-07T01:12:49.433Z,37.13
2018-06-07T01:15:17.437Z,36.03
2018-06-07T01:17:45.402Z,30.10
2018-06-07T01:20:13.670Z,31.97
2018-06-07T01:22:41.698Z,51.80
2018-06-07T01:25:09.653Z,31.10
2018-06-07T01:27:40.352Z,30.43
2018-06-07T01:30:19.376Z,29.30
2018-06-07T01:33:59.229Z,29.83
2018-06-07T01:36:27.696Z,30.90
2018-06-07T01:39:00.293Z,29.53
2018-06-07T01:41:28.633Z,24.50
2018-06-07T01:43:57.025Z,27.50
2018-06-07T01:46:25.558Z,27.27
2018-06-07T01:48:53.825Z,27.13
2018-06-07T01:51:22.236Z,31.20
2018-06-07T01:53:56.844Z,36.17
2018-06-07T01:56:25.445Z,31.77
2018-06-07T01:58:53.717Z,37.77
2018-06-07T02:01:21.786Z,31.60
2018-06-07T02:03:49.724Z,35.23
2018-06-07T02:06:17.820Z,35.90
2018-06-07T02:08:46.131Z,34.47
2018-06-07T02:11:14.371Z,40.93
2018-06-07T02:13:42.320Z,39.90
2018-06-07T02:16:10.285Z,27.27
2018-06-07T02:18:38.238Z,34.90
2018-06-07T02:21:07.061Z,33.87
2018-06-07T02:23:35.045Z,35.00
2018-06-07T02:26:03.053Z,38.13
2018-06-07T02:28:31.328Z,37.80
2018-06-07T02:30:59.696Z,37.33
2018-06-07T02:33:27.892Z,33.63
2018-06-07T02:35:56.262Z,38.67
2018-06-07T02:38:25.001Z,35.20
2018-06-07T02:40:53.583Z,31.67
2018-06-07T02:43:21.704Z,38.77
2018-06-07T02:45:49.713Z,33.57
2018-06-07T02:48:17.678Z,32.90
2018-06-07T02:50:45.623Z,30.80
2018-06-07T02:53:13.732Z,31.70
2018-06-07T02:55:41.696Z,36.10
2018-06-07T02:58:09.625Z,32.03
2018-06-07T03:00:37.589Z,35.73
2018-06-07T03:03:05.699Z,34.00
2018-06-07T03:05:33.857Z,30.40
2018-06-07T03:08:02.106Z,29.43
2018-06-07T03:10:30.351Z,32.10
2018-06-07T03:12:58.565Z,29.27
2018-06-07T03:15:26.876Z,43.00
2018-06-07T03:17:55.577Z,30.53
2018-06-07T03:20:24.225Z,36.90
2018-06-07T03:22:52.607Z,36.67
2018-06-07T03:25:20.603Z,38.70
2018-06-07T03:27:49.247Z,29.40
2018-06-07T03:30:17.495Z,37.63
2018-06-07T03:32:45.954Z,38.67
2018-06-07T03:35:14.149Z,32.20
2018-06-07T03:37:42.220Z,33.50
2018-06-07T03:40:10.199Z,39.33
2018-06-07T03:42:38.149Z,35.13
2018-06-07T03:45:06.185Z,35.23
2018-06-07T03:47:34.337Z,35.67
2018-06-07T03:50:02.313Z,33.07
2018-06-07T03:52:30.705Z,34.87
2018-06-07T03:54:58.965Z,41.90
2018-06-07T03:57:27.434Z,32.30
2018-06-07T03:59:55.785Z,32.40
2018-06-07T04:02:24.461Z,35.93
2018-06-07T04:04:53.416Z,31.17
2018-06-07T04:07:21.949Z,30.10
2018-06-07T04:09:50.838Z,37.73
2018-06-07T04:12:18.816Z,30.23
2018-06-07T04:14:47.004Z,32.60
2018-06-07T04:17:14.957Z,29.87
2018-06-07T04:19:43.146Z,31.20
2018-06-07T04:22:11.421Z,40.07
2018-06-07T04:24:39.436Z,30.83
2018-06-07T04:27:08.357Z,33.00
2018-06-07T04:29:36.345Z,37.97
2018-06-07T04:32:04.660Z,28.00
2018-06-07T04:34:33.045Z,28.17
2018-06-07T04:37:01.648Z,22.73
2018-06-07T04:39:29.997Z,28.27
2018-06-07T04:41:58.311Z,25.93
2018-06-07T04:44:26.866Z,24.17
2018-06-07T04:46:55.338Z,25.60
2018-06-07T04:49:23.720Z,25.70
2018-06-07T04:51:52.363Z,28.20
2018-06-07T04:54:20.866Z,26.50
2018-06-07T04:56:49.208Z,23.70
2018-06-07T04:59:17.181Z,22.10
2018-06-07T05:01:45.470Z,27.30
2018-06-07T05:04:13.752Z,23.23
2018-06-07T05:06:41.853Z,19.80
2018-06-07T05:09:09.820Z,23.33
2018-06-07T05:11:37.813Z,18.50
2018-06-07T05:14:05.819Z,24.90
2018-06-07T05:16:34.291Z,19.90
2018-06-07T05:19:03.966Z,13.60
2018-06-07T05:21:32.397Z,14.40
2018-06-07T05:24:01.130Z,19.27
2018-06-07T05:26:29.715Z,19.13
2018-06-07T05:28:58.695Z,20.07
2018-06-07T05:31:28.139Z,16.13
2018-06-07T05:33:56.960Z,14.37
2018-06-07T05:36:28.406Z,17.37
2018-06-07T05:41:32.860Z,23.10
2018-06-07T05:44:01.841Z,24.33
2018-06-07T05:46:34.084Z,33.80
2018-06-07T05:49:02.942Z,18.40
2018-06-07T05:51:31.501Z,18.97
2018-06-07T05:54:00.510Z,18.13
2018-06-07T05:56:32.525Z,19.03
2018-06-07T05:59:01.302Z,20.87
2018-06-07T06:01:30.013Z,24.27
2018-06-07T06:03:59.619Z,23.07
2018-06-07T06:06:29.001Z,18.27
2018-06-07T06:09:00.348Z,26.53
2018-06-07T06:11:29.127Z,20.20
2018-06-07T06:13:57.491Z,22.53
2018-06-07T06:19:29.102Z,18.13
2018-06-07T06:21:57.530Z,18.57
2018-06-07T06:24:28.731Z,20.67
2018-06-07T06:26:57.607Z,20.13
2018-06-07T06:29:26.057Z,17.77
2018-06-07T06:31:54.708Z,18.17
2018-06-07T06:36:55.925Z,21.27
2018-06-07T06:39:25.788Z,25.93
2018-06-07T06:41:59.471Z,22.30
2018-06-07T06:47:12.143Z,25.03
2018-06-07T06:49:41.414Z,20.27
2018-06-07T06:52:10.104Z,24.37
2018-06-07T06:54:39.283Z,24.73
2018-06-07T06:57:07.511Z,22.03
2018-06-07T06:59:36.213Z,29.00
2018-06-07T07:02:04.686Z,22.70
2018-06-07T07:04:33.097Z,22.90
2018-06-07T07:07:01.442Z,28.00
2018-06-07T07:09:29.808Z,23.17
2018-06-07T07:11:58.110Z,23.80
2018-06-07T07:14:28.169Z,23.13
2018-06-07T07:16:57.348Z,24.67
2018-06-07T07:19:26.868Z,22.17
2018-06-07T07:21:55.428Z,26.93
2018-06-07T07:24:25.165Z,24.30
2018-06-07T07:26:53.601Z,27.17
2018-06-07T07:29:23.634Z,28.27
2018-06-07T07:31:54.432Z,21.93
2018-06-07T07:34:23.798Z,30.73
2018-06-07T07:39:29.726Z,23.90
2018-06-07T07:41:58.018Z,21.27
2018-06-07T07:44:26.799Z,28.20
2018-06-07T07:47:02.976Z,22.03
2018-06-07T07:49:31.377Z,25.67
2018-06-07T07:52:00.206Z,29.20
2018-06-07T07:54:29.026Z,23.53
2018-06-07T07:56:57.600Z,27.23
2018-06-07T07:59:26.159Z,26.40
2018-06-07T08:05:08.410Z,27.70
2018-06-07T08:07:36.610Z,23.50
2018-06-07T08:10:05.740Z,32.73
2018-06-07T08:12:35.204Z,30.20
2018-06-07T08:15:03.651Z,23.93
2018-06-07T08:17:31.941Z,22.90
2018-06-07T08:20:00.389Z,25.30
2018-06-07T08:22:33.455Z,30.10
2018-06-07T08:25:01.861Z,26.60
2018-06-07T08:27:31.226Z,26.90
2018-06-07T08:29:59.560Z,29.40
2018-06-07T08:32:29.238Z,26.30
2018-06-07T08:34:57.954Z,29.27
2018-06-07T08:37:26.386Z,30.53
2018-06-07T08:39:56.693Z,28.90
2018-06-07T08:45:06.239Z,26.87
2018-06-07T08:47:34.348Z,28.60
2018-06-07T08:50:02.669Z,27.13
2018-06-07T08:52:31.015Z,25.93
2018-06-07T08:54:59.905Z,37.27
2018-06-07T08:57:28.301Z,32.60
2018-06-07T08:59:56.716Z,22.13
2018-06-07T09:02:25.339Z,26.57
2018-06-07T09:04:54.321Z,25.77
2018-06-07T09:07:22.644Z,28.30
2018-06-07T09:09:51.985Z,28.73
2018-06-07T09:12:21.323Z,39.13
2018-06-07T09:14:49.545Z,27.00
2018-06-07T09:17:17.710Z,28.70
2018-06-07T09:19:46.357Z,25.80
2018-06-07T09:22:14.339Z,23.27
2018-06-07T09:24:42.557Z,26.70
2018-06-07T09:27:10.701Z,26.70
2018-06-07T09:29:38.930Z,25.23
2018-06-07T09:32:07.234Z,23.87
2018-06-07T09:34:35.313Z,24.10
2018-06-07T09:37:03.773Z,23.70
2018-06-07T09:39:32.009Z,25.83
2018-06-07T09:42:00.877Z,23.77
2018-06-07T09:44:29.553Z,25.70
2018-06-07T09:46:58.631Z,25.43
2018-06-07T09:49:27.338Z,28.47
2018-06-07T09:51:56.099Z,29.43
2018-06-07T09:54:25.145Z,25.27
2018-06-07T09:56:56.318Z,27.20
2018-06-07T09:59:25.037Z,29.70
2018-06-07T10:01:55.116Z,24.07
2018-06-07T10:04:24.439Z,27.43
2018-06-07T10:06:53.522Z,37.47
2018-06-07T10:09:21.847Z,21.60
2018-06-07T10:11:50.222Z,22.03
2018-06-07T10:14:18.385Z,30.00
2018-06-07T10:16:47.194Z,24.37
2018-06-07T10:19:15.884Z,25.97
2018-06-07T10:21:44.682Z,23.43
2018-06-07T10:24:13.103Z,25.80
2018-06-07T10:26:41.435Z,26.67
2018-06-07T10:29:09.843Z,23.53
2018-06-07T10:31:37.957Z,20.43
2018-06-07T10:34:06.433Z,23.37
2018-06-07T10:36:34.505Z,22.63
2018-06-07T10:39:05.173Z,19.07
2018-06-07T10:41:34.146Z,20.57
2018-06-07T10:44:02.393Z,22.87
2018-06-07T10:46:34.714Z,20.03
2018-06-07T10:49:03.066Z,20.80
2018-06-07T10:51:32.080Z,21.17
2018-06-07T10:54:00.831Z,19.33
2018-06-07T10:56:29.507Z,21.00
2018-06-07T10:59:07.040Z,25.53
2018-06-07T11:01:35.348Z,26.30
2018-06-07T11:04:03.971Z,17.00
2018-06-07T11:06:32.709Z,20.43
2018-06-07T11:09:01.341Z,20.07
2018-06-07T11:11:29.782Z,25.97
2018-06-07T11:13:58.307Z,22.80
2018-06-07T11:16:28.051Z,21.93
2018-06-07T11:18:56.657Z,20.20
2018-06-07T11:21:26.707Z,19.37
2018-06-07T11:23:56.687Z,20.23
2018-06-07T11:26:28.957Z,19.27
2018-06-07T11:28:57.795Z,20.53
2018-06-07T11:31:26.998Z,19.97
2018-06-07T11:33:55.483Z,19.03
2018-06-07T11:36:24.773Z,23.23
2018-06-07T11:38:53.454Z,19.27
2018-06-07T11:41:22.237Z,26.00
2018-06-07T11:43:50.544Z,16.93
2018-06-07T11:46:18.856Z,15.03
2018-06-07T11:48:47.237Z,17.57
2018-06-07T11:51:15.759Z,14.60
2018-06-07T11:53:45.021Z,15.97
2018-06-07T11:56:13.259Z,17.30
2018-06-07T11:58:42.415Z,17.87
2018-06-07T12:01:10.578Z,17.70
2018-06-07T12:03:38.925Z,20.97
2018-06-07T12:06:07.269Z,14.00
2018-06-07T12:08:35.514Z,17.47
2018-06-07T12:11:04.639Z,18.80
2018-06-07T12:13:33.383Z,16.50
2018-06-07T12:16:01.677Z,15.03
2018-06-07T12:18:31.026Z,18.20
2018-06-07T12:21:00.146Z,16.03
2018-06-07T12:23:30.934Z,28.73
2018-06-07T12:25:59.256Z,19.83
2018-06-07T12:28:27.870Z,18.83
2018-06-07T12:30:56.610Z,19.93
2018-06-07T12:33:25.235Z,17.70
2018-06-07T12:35:53.727Z,22.20
2018-06-07T12:38:22.005Z,23.57
2018-06-07T12:40:50.184Z,20.90
2018-06-07T12:43:18.430Z,19.20
2018-06-07T12:45:46.659Z,18.07
2018-06-07T12:48:16.590Z,15.40
2018-06-07T12:50:44.989Z,17.13
2018-06-07T12:53:13.151Z,15.23
2018-06-07T12:55:41.601Z,14.83
2018-06-07T12:58:15.286Z,16.83
2018-06-07T13:00:43.658Z,21.03
2018-06-07T13:03:11.968Z,22.53
2018-06-07T13:05:40.711Z,17.20
2018-06-07T13:08:09.880Z,17.07
2018-06-07T13:10:43.096Z,14.50
2018-06-07T13:13:11.267Z,19.93
2018-06-07T13:15:39.984Z,17.03
2018-06-07T13:18:09.492Z,21.67
2018-06-07T13:20:37.894Z,22.67
2018-06-07T13:23:12.291Z,20.33
2018-06-07T13:25:42.133Z,26.33
2018-06-07T13:28:12.230Z,18.57
2018-06-07T13:30:46.423Z,26.50
2018-06-07T13:33:15.608Z,21.43
2018-06-07T13:35:44.018Z,17.27
2018-06-07T13:38:13.231Z,26.57
2018-06-07T13:40:41.622Z,24.83
2018-06-07T13:43:14.178Z,31.10
2018-06-07T13:45:42.538Z,26.10
2018-06-07T13:48:10.722Z,25.47
2018-06-07T13:50:41.554Z,26.40
2018-06-07T13:53:12.172Z,22.83
2018-06-07T13:55:41.115Z,27.87
2018-06-07T13:58:10.325Z,25.30
2018-06-07T14:00:38.899Z,29.83
2018-06-07T14:03:07.574Z,35.23
2018-06-07T14:05:36.137Z,27.43
2018-06-07T14:08:10.009Z,34.67
2018-06-07T14:10:38.486Z,25.53
2018-06-07T14:13:08.306Z,26.03
2018-06-07T14:15:36.761Z,34.27
2018-06-07T14:18:05.355Z,23.57
2018-06-07T14:20:34.128Z,16.63
2018-06-07T14:25:57.181Z,25.50
2018-06-07T14:28:26.876Z,21.37
2018-06-07T14:33:44.189Z,22.10
2018-06-07T14:36:12.668Z,16.07
2018-06-07T14:38:41.749Z,22.77
2018-06-07T14:41:14.710Z,20.33
2018-06-07T14:43:49.440Z,24.10
2018-06-07T14:46:17.654Z,18.03
2018-06-07T14:48:45.927Z,20.97
2018-06-07T14:51:14.307Z,28.17
2018-06-07T14:53:49.226Z,22.90
2018-06-07T14:56:17.951Z,26.13
2018-06-07T14:58:46.662Z,11.77
2018-06-07T15:01:15.624Z,17.13
2018-06-07T15:03:44.034Z,10.40
2018-06-07T15:06:17.770Z,21.80
2018-06-07T15:08:50.211Z,13.53
2018-06-07T15:11:25.031Z,15.73
2018-06-07T15:13:54.289Z,14.63
2018-06-07T15:16:24.598Z,15.90
2018-06-07T15:18:53.932Z,26.33
2018-06-07T15:21:23.656Z,15.27
2018-06-07T15:23:55.787Z,16.03
2018-06-07T15:26:26.379Z,12.67
2018-06-07T15:29:05.466Z,10.40
2018-06-07T15:31:34.262Z,9.67
2018-06-07T15:34:13.338Z,13.73
2018-06-07T15:36:44.610Z,9.93
2018-06-07T15:39:16.893Z,9.80
2018-06-07T15:41:46.111Z,12.20
2018-06-07T15:44:26.810Z,11.33
2018-06-07T15:46:56.305Z,5.33
2018-06-07T15:49:26.024Z,7.47
2018-06-07T15:51:59.409Z,7.50
2018-06-07T15:54:27.580Z,20.57
2018-06-07T15:56:55.887Z,21.53
2018-06-07T15:59:24.512Z,25.60
2018-06-07T16:01:52.745Z,26.87
2018-06-07T16:04:21.624Z,35.93
2018-06-07T16:06:50.358Z,32.10
2018-06-07T16:09:23.597Z,32.87
2018-06-07T16:11:51.995Z,23.47
2018-06-07T16:14:20.512Z,24.00
2018-06-07T16:16:48.988Z,18.63
2018-06-07T16:19:17.582Z,16.10
2018-06-07T16:21:45.700Z,13.70
2018-06-07T16:24:14.767Z,13.27
2018-06-07T16:26:43.231Z,13.90
2018-06-07T16:29:11.114Z,16.93
2018-06-07T16:31:39.152Z,14.47
2018-06-07T16:34:07.290Z,14.17
2018-06-07T16:36:35.883Z,15.13
2018-06-07T16:39:06.274Z,17.93
2018-06-07T16:41:34.391Z,25.77
2018-06-07T16:44:03.151Z,19.57
2018-06-07T16:46:31.254Z,26.37
2018-06-07T16:48:59.486Z,21.80
2018-06-07T16:51:28.006Z,22.83
2018-06-07T16:53:56.512Z,32.70
2018-06-07T16:56:25.863Z,28.20
2018-06-07T16:58:55.171Z,21.23
2018-06-07T17:01:24.204Z,28.83
2018-06-07T17:03:53.379Z,28.57
2018-06-07T17:06:23.230Z,26.57
2018-06-07T17:08:52.157Z,30.03
2018-06-07T17:11:20.239Z,27.53
2018-06-07T17:13:48.391Z,24.80
2018-06-07T17:16:16.682Z,32.10
2018-06-07T17:18:44.967Z,31.93
2018-06-07T17:21:12.950Z,29.17
2018-06-07T17:23:40.960Z,31.17
2018-06-07T17:26:08.956Z,32.43
2018-06-07T17:28:37.035Z,29.33
2018-06-07T17:31:05.009Z,31.87
2018-06-07T17:33:33.165Z,29.87
2018-06-07T17:36:01.253Z,29.50
2018-06-07T17:38:29.476Z,28.07
2018-06-07T17:40:57.773Z,39.17
2018-06-07T17:43:25.998Z,32.20
2018-06-07T17:45:54.325Z,30.00
2018-06-07T17:48:22.478Z,30.23
2018-06-07T17:50:50.392Z,33.00
2018-06-07T17:53:18.332Z,24.83
2018-06-07T17:55:46.506Z,29.23
2018-06-07T17:58:14.718Z,34.77
2018-06-07T18:00:42.645Z,30.70
2018-06-07T18:03:10.560Z,32.50
2018-06-07T18:05:38.473Z,31.37
2018-06-07T18:08:06.426Z,28.13
2018-06-07T18:10:34.373Z,26.87
2018-06-07T18:13:02.406Z,26.40
2018-06-07T18:15:30.445Z,28.40
2018-06-07T18:17:58.674Z,27.00
2018-06-07T18:20:26.924Z,28.87
2018-06-07T18:22:55.088Z,25.70
2018-06-07T18:25:23.185Z,30.10
2018-06-07T18:27:51.110Z,28.07
2018-06-07T18:30:19.093Z,30.00
2018-06-07T18:32:47.032Z,37.00
2018-06-07T18:35:15.057Z,28.53
2018-06-07T18:37:43.159Z,28.20
2018-06-07T18:40:11.163Z,24.30
2018-06-07T18:42:39.070Z,25.40
2018-06-07T18:45:07.039Z,29.80
2018-06-07T18:47:35.002Z,27.87
2018-06-07T18:50:03.070Z,25.27
2018-06-07T18:52:31.289Z,29.07
2018-06-07T18:55:00.123Z,19.80
2018-06-07T18:57:28.263Z,22.23
2018-06-07T18:59:56.756Z,29.13
2018-06-07T19:02:24.914Z,22.60
2018-06-07T19:04:53.025Z,23.70
2018-06-07T19:07:22.075Z,24.03
2018-06-07T19:09:56.266Z,24.87
2018-06-07T19:12:24.525Z,25.63
2018-06-07T19:14:58.035Z,18.83
2018-06-07T19:17:27.198Z,21.43
2018-06-07T19:20:00.759Z,22.30
2018-06-07T19:22:28.815Z,15.57
2018-06-07T19:25:02.247Z,16.97
2018-06-07T19:27:30.429Z,18.13
2018-06-07T19:29:58.567Z,15.20
2018-06-07T19:32:32.087Z,26.07
2018-06-07T19:35:07.649Z,16.60
2018-06-07T19:37:35.672Z,24.90
2018-06-07T19:40:09.063Z,15.53
2018-06-07T19:42:36.998Z,22.77
2018-06-07T19:45:04.968Z,19.23
2018-06-07T19:47:33.032Z,16.10
2018-06-07T19:50:01.123Z,21.60
2018-06-07T19:52:29.248Z,20.43
2018-06-07T19:54:57.685Z,17.77
2018-06-07T19:57:26.318Z,23.83
2018-06-07T19:59:54.485Z,18.57
2018-06-07T20:02:22.823Z,17.90
2018-06-07T20:04:50.798Z,25.07
2018-06-07T20:07:18.742Z,18.80
2018-06-07T20:09:46.761Z,17.13
2018-06-07T20:12:14.796Z,28.00
2018-06-07T20:14:42.708Z,24.87
2018-06-07T20:17:10.736Z,22.40
2018-06-07T20:19:38.736Z,21.60
2018-06-07T20:22:06.767Z,19.70
2018-06-07T20:24:34.844Z,21.40
2018-06-07T20:27:03.714Z,21.80
2018-06-07T20:29:31.835Z,21.87
2018-06-07T20:31:59.852Z,21.63
2018-06-07T20:34:27.916Z,22.90
2018-06-07T20:36:56.429Z,25.73
2018-06-07T20:39:24.502Z,24.30
2018-06-07T20:41:52.604Z,25.57
2018-06-07T20:44:20.548Z,21.73
2018-06-07T20:46:48.501Z,27.20
2018-06-07T20:49:16.460Z,24.50
2018-06-07T20:51:44.621Z,20.70
2018-06-07T20:54:12.557Z,41.40
2018-06-07T20:56:40.466Z,25.00
2018-06-07T20:59:08.425Z,26.20
2018-06-07T21:01:37.891Z,28.40
2018-06-07T21:04:05.828Z,27.17
2018-06-07T21:06:33.788Z,28.10
2018-06-07T21:09:01.740Z,23.60
2018-06-07T21:11:31.513Z,22.33
2018-06-07T21:14:01.323Z,24.97
2018-06-07T21:16:30.548Z,26.70
2018-06-07T21:18:59.766Z,26.33
2018-06-07T21:21:28.504Z,25.83
2018-06-07T21:23:57.496Z,23.53
2018-06-07T21:26:27.058Z,24.70
2018-06-07T21:28:57.187Z,30.23
2018-06-07T21:31:26.016Z,30.77
2018-06-07T21:33:54.736Z,34.83
2018-06-07T21:36:23.074Z,29.43
2018-06-07T21:38:52.761Z,28.57
2018-06-07T21:41:21.508Z,32.10
2018-06-07T21:43:50.667Z,33.90
2018-06-07T21:46:21.138Z,29.80
2018-06-07T21:48:50.162Z,32.87
2018-06-07T21:51:18.375Z,31.77
2018-06-07T21:53:50.823Z,30.50
2018-06-07T21:56:21.945Z,35.57
2018-06-07T21:58:52.510Z,31.80
2018-06-07T22:01:26.548Z,37.10
2018-06-07T22:03:58.954Z,33.80
2018-06-07T22:06:29.360Z,37.53
2018-06-07T22:08:57.985Z,32.40
2018-06-07T22:11:27.001Z,32.70
2018-06-07T22:13:55.923Z,32.60
2018-06-07T22:16:25.623Z,34.00
2018-06-07T22:18:55.228Z,33.47
2018-06-07T22:21:27.589Z,39.40
2018-06-07T22:23:56.485Z,35.67
2018-06-07T22:26:26.796Z,37.03
2018-06-07T22:28:55.906Z,48.47
2018-06-07T22:31:24.517Z,61.40
2018-06-07T22:33:54.972Z,62.50
2018-06-07T22:36:23.275Z,90.73
2018-06-07T22:38:53.066Z,71.70
2018-06-07T22:41:22.200Z,61.90
2018-06-07T22:43:52.154Z,71.57
2018-06-07T22:46:20.700Z,75.13
2018-06-07T22:48:49.062Z,87.13
2018-06-07T22:51:17.150Z,96.50
2018-06-07T22:53:45.120Z,78.03
2018-06-07T22:56:13.102Z,81.17
2018-06-07T22:58:41.691Z,66.40
2018-06-07T23:01:10.702Z,72.33
2018-06-07T23:03:40.146Z,68.73
2018-06-07T23:06:08.935Z,70.40
2018-06-07T23:08:38.995Z,68.80
2018-06-07T23:11:07.336Z,73.27
2018-06-07T23:13:35.287Z,63.63
2018-06-07T23:16:03.594Z,70.93
2018-06-07T23:18:31.813Z,66.37
2018-06-07T23:21:00.426Z,54.93
2018-06-07T23:23:28.892Z,65.57
2018-06-07T23:25:57.820Z,64.87
2018-06-07T23:28:26.323Z,58.70
2018-06-07T23:30:54.935Z,59.03
2018-06-07T23:33:24.255Z,60.50
2018-06-07T23:35:55.240Z,53.67
2018-06-07T23:38:24.896Z,44.17
2018-06-07T23:40:56.653Z,36.47
2018-06-07T23:43:27.307Z,39.37
2018-06-07T23:45:55.721Z,37.10
2018-06-07T23:48:24.740Z,35.17
2018-06-07T23:50:52.914Z,35.00
2018-06-07T23:53:21.240Z,32.07
2018-06-07T23:55:51.938Z,37.87
2018-06-07T23:58:21.067Z,35.30
